This is the latest recevied weather packets stored in our database for station/object KC0UFP. If no packets are shown the sender has not sent any weather packets the latest 10 day(s).
| Time | Temp. | Humidity | Pressure | Rain* | Wind** | Luminosity | Snow |
|---|---|---|---|---|---|---|---|
| 1778176645 | 17.78° C | 46% | 1017.6 hPa | 0 mm | - | 1040 W/m² | - |
| 1778176342 | 17.78° C | 47% | 1017.4 hPa | 0 mm | - | 1041 W/m² | - |
| 1778176040 | 17.78° C | 47% | 1017.5 hPa | 0 mm | - | 1036 W/m² | - |
| 1778175738 | 17.22° C | 48% | 1017.5 hPa | 0 mm | - | 1030 W/m² | - |
| 1778175435 | 17.78° C | 48% | 1017.5 hPa | 0 mm | - | 1006 W/m² | - |
| 1778175131 | 17.78° C | 45% | 1017.4 hPa | 0 mm | - | 966 W/m² | - |
| 1778174828 | 17.22° C | 47% | 1017.6 hPa | 0 mm | - | 930 W/m² | - |
| 1778174525 | 17.78° C | 49% | 1017.5 hPa | 0 mm | - | 902 W/m² | - |
| 1778174225 | 17.22° C | 46% | 1017.6 hPa | 0 mm | - | 865 W/m² | - |
| 1778173923 | 17.78° C | 47% | 1017.5 hPa | 0 mm | - | 857 W/m² | - |
| 1778173619 | 17.78° C | 49% | 1017.7 hPa | 0 mm | - | 862 W/m² | - |
| 1778173317 | 17.22° C | 49% | 1017.5 hPa | 0 mm | - | 838 W/m² | - |
| 1778173012 | 17.78° C | 52% | 1017.6 hPa | 0 mm | - | 843 W/m² | - |
| 1778172708 | 16.67° C | 48% | 1017.7 hPa | 0 mm | - | 835 W/m² | - |
| 1778172404 | 16.67° C | 51% | 1017.8 hPa | 0 mm | - | 834 W/m² | - |
| 1778172102 | 16.67° C | 50% | 1017.8 hPa | 0 mm | - | 834 W/m² | - |
| 1778171799 | 16.11° C | 52% | 1017.7 hPa | 0 mm | - | 831 W/m² | - |
| 1778171497 | 17.22° C | 48% | 1018.1 hPa | 0 mm | - | 844 W/m² | - |
| 1778171192 | 17.22° C | 48% | 1017.8 hPa | 0 mm | - | 842 W/m² | - |
| 1778170883 | 17.22° C | 46% | 1018 hPa | 0 mm | - | 846 W/m² | - |
| 1778170579 | 17.22° C | 51% | 1017.7 hPa | 0 mm | - | 849 W/m² | - |
| 1778170276 | 17.22° C | 49% | 1018.1 hPa | 0 mm | - | 846 W/m² | - |
| 1778169972 | 16.67° C | 53% | 1017.9 hPa | 0 mm | - | 836 W/m² | - |
| 1778169669 | 16.11° C | 48% | 1018.1 hPa | 0 mm | - | 841 W/m² | - |
| 1778169364 | 15.56° C | 56% | 1017.9 hPa | 0 mm | - | 835 W/m² | - |
* Rain latest hour (hover to see other rain measurements)
** Current wind speed in m/s (hover to see current wind gust speed)